METAR Data
IDs: Format: Raw Decoded Include TAF

Data at: 0425 UTC 26 Sep 2018

KDLZ 260415Z AUTO 19005KT 10SM SCT029 BKN037 OVC055 22/20 A2996 RMK AO2 LTG DSNT S
KDLZ 260355Z AUTO 19005KT 10SM SCT041 BKN065 OVC080 22/21 A2996 RMK AO2
KDLZ 260335Z AUTO 22007KT 10SM SCT027 OVC080 22/21 A2997 RMK AO2
KDLZ 260315Z AUTO 20008KT 10SM SCT012 BKN027 BKN070 22/21 A2998 RMK AO2
KDLZ 260255Z AUTO 20008G14KT 10SM SCT014 SCT020 22/21 A2998 RMK AO2
KDLZ 260235Z AUTO 21008KT 10SM SCT016 SCT022 BKN080 22/21 A2997 RMK AO2
KDLZ 260215Z AUTO 18007KT 10SM SCT017 SCT033 BKN080 22/21 A2996 RMK AO2
KDLZ 260155Z AUTO 18008KT 10SM SCT029 SCT037 BKN075 22/21 A2996 RMK AO2
KDLZ 260135Z AUTO 18007KT 10SM SCT026 SCT042 BKN075 23/21 A2996 RMK AO2
KDLZ 260115Z AUTO 18007KT 10SM SCT020 BKN026 BKN042 23/21 A2996 RMK AO2
KDLZ 260055Z AUTO 19007KT 10SM SCT019 BKN026 OVC060 23/21 A2997 RMK AO2 LTG DSNT W
KDLZ 260035Z AUTO 18007KT 10SM BKN024 BKN042 OVC085 23/21 A2997 RMK AO2
KDLZ 260015Z AUTO 19008KT 10SM SCT026 BKN040 BKN048 23/21 A2997 RMK AO2 LTG DSNT N
KDLZ 252355Z AUTO 18007KT 10SM SCT028 SCT038 BKN047 23/21 A2997 RMK AO2 LTG DSNT N
KDLZ 252335Z AUTO 17007G14KT 10SM SCT026 BKN036 BKN043 23/21 A2997 RMK AO2
KDLZ 252315Z AUTO 16008KT 10SM SCT027 BKN034 OVC070 23/21 A2996 RMK AO2
KDLZ 252255Z AUTO 16007KT 10SM -RA SCT022 BKN031 OVC060 23/21 A2996 RMK AO2
KDLZ 252235Z AUTO 16006KT 10SM BKN020 BKN028 OVC040 23/21 A2996 RMK AO2
KDLZ 252215Z AUTO 16006KT 10SM SCT025 SCT030 OVC043 23/21 A2996 RMK AO2
KDLZ 252155Z AUTO 16005KT 10SM SCT022 SCT028 OVC043 23/21 A2996 RMK AO2 LTG DSNT S AND SW
KDLZ 252135Z AUTO 18006KT 10SM SCT021 BKN027 OVC041 23/21 A2997 RMK AO2
KDLZ 252115Z AUTO 17007KT 10SM SCT022 BKN027 OVC033 23/21 A2997 RMK AO2
KDLZ 252055Z AUTO 17005KT 10SM SCT020 BKN026 OVC043 23/21 A2998 RMK AO2
KDLZ 252035Z AUTO 18003KT 10SM SCT013 BKN024 OVC038 23/21 A2998 RMK AO2
KDLZ 252015Z AUTO 18006KT 10SM -RA BKN015 OVC020 23/21 A2998 RMK AO2
KDLZ 251955Z AUTO 19007KT 10SM BKN015 BKN023 BKN029 23/21 A3000 RMK AO2
KDLZ 251935Z AUTO 20006KT 10SM SCT009 BKN015 OVC019 23/21 A2999 RMK AO2
KDLZ 251915Z AUTO 20006KT 10SM BKN013 OVC017 22/21 A3001 RMK AO2
KDLZ 251855Z AUTO 21008G15KT 7SM BKN013 OVC017 22/21 A3003 RMK AO2 LTG DSNT N
KDLZ 251835Z AUTO 19009KT 7SM BKN014 OVC019 22/21 A3005 RMK AO2
KDLZ 251815Z AUTO 20007KT 10SM OVC014 22/21 A3006 RMK AO2 LTG DSNT SE AND NW
KDLZ 251755Z AUTO 20008KT 10SM 22/21 A3006 RMK AO2
KDLZ 251735Z AUTO 19007KT 10SM OVC012 22/21 A3006 RMK AO2 LTG DSNT SE
KDLZ 251715Z AUTO 20008KT 10SM OVC012 22/21 A3006 RMK AO2 LTG DSNT NW
KDLZ 251655Z AUTO 20008KT 10SM OVC010 22/21 A3006 RMK AO2
KDLZ 251635Z AUTO 19008KT 10SM OVC010 22/21 A3005 RMK AO2 LTG DSNT E
KDLZ 251615Z AUTO 20007KT 10SM OVC010 21/20 A3006 RMK AO2
KDLZ 251555Z AUTO 20006KT 7SM OVC008 21/20 A3007 RMK AO2 LTG DSNT NE
KDLZ 251535Z AUTO 19008KT 5SM BR OVC006 21/20 A3007 RMK AO2 LTG DSNT NE
KDLZ 251515Z AUTO 19005KT 4SM BR OVC006 20/20 A3007 RMK AO2 LTG DSNT W
KDLZ 251455Z AUTO 17007KT 4SM BR OVC008 20/20 A3007 RMK AO2 LTG DSNT NW
KDLZ 251435Z AUTO 17008KT 4SM BR OVC008 20/20 A3007 RMK AO2 LTG DSNT NE
KDLZ 251415Z AUTO 17006KT 4SM BR BKN006 OVC014 20/20 A3007 RMK AO2 LTG DSNT E AND W
KDLZ 251355Z AUTO 16008KT 10SM SCT008 BKN017 OVC045 20/20 A3006 RMK AO2 P0013 LTG DSNT NE AND NW
KDLZ 251335Z AUTO 17009KT 2 1/2SM -VCTSRA SCT006 BKN011 OVC055 20/20 A3007 RMK AO2 P0012 LTG DSNT N AND NW
KDLZ 251315Z AUTO 18008KT 4SM +RA BKN007 OVC015 20/19 A3007 RMK AO2 P0004 LTG DSNT N AND NW
KDLZ 251255Z AUTO 18004KT 7SM VCTSRA BKN007 OVC011 20/19 A3007 RMK AO2 P0006 LTG DSNT W
KDLZ 251235Z AUTO 19006KT 5SM VCTSRA OVC009 20/19 A3007 RMK AO2 LTG DSNT W
KDLZ 251215Z AUTO 17006KT 7SM VCTS OVC007 20/19 A3007 RMK AO2 LTG DSNT W
KDLZ 251155Z AUTO 18006KT 7SM VCTS OVC009 20/19 A3007 RMK AO2 LTG DSNT W THRU N
KDLZ 251135Z AUTO 17008KT 10SM OVC009 20/19 A3007 RMK AO2
KDLZ 251115Z AUTO 17006KT 10SM OVC009 20/19 A3007 RMK AO2 LTG DSNT W AND NW
KDLZ 251055Z AUTO 18006KT 10SM OVC009 20/19 A3007 RMK AO2 P0001 LTG DSNT W AND NW
KDLZ 251035Z AUTO 17008KT 10SM BKN007 OVC012 20/19 A3006 RMK AO2 P0001 LTG DSNT W AND NW
KDLZ 251015Z AUTO 17007KT 10SM -RA OVC007 20/19 A3006 RMK AO2 LTG DSNT NW
KDLZ 250955Z AUTO 18006KT 10SM OVC007 20/19 A3006 RMK AO2 LTG DSNT W AND NW
KDLZ 250935Z AUTO 17006KT 10SM BKN007 OVC012 20/19 A3006 RMK AO2 LTG DSNT W
KDLZ 250915Z AUTO 17007KT 10SM BKN007 OVC012 20/19 A3005 RMK AO2 LTG DSNT W
KDLZ 250855Z AUTO 19004KT 10SM BKN007 OVC011 20/19 A3006 RMK AO2 LTG DSNT W
KDLZ 250835Z AUTO 17005KT 10SM SCT007 OVC012 20/19 A3005 RMK AO2 LTG DSNT NW
KDLZ 250815Z AUTO 16008KT 10SM BKN007 OVC012 20/19 A3005 RMK AO2
KDLZ 250755Z AUTO 17007KT 10SM BKN007 OVC012 20/19 A3006 RMK AO2
KDLZ 250735Z AUTO 17006KT 5SM -DZ BKN007 OVC013 20/19 A3006 RMK AO2
KDLZ 250715Z AUTO 18008KT 10SM BKN007 OVC012 20/19 A3006 RMK AO2
KDLZ 250655Z AUTO 17007KT 10SM BKN007 OVC012 20/19 A3006 RMK AO2
KDLZ 250635Z AUTO 19008KT 10SM BKN009 OVC014 20/19 A3007 RMK AO2
KDLZ 250615Z AUTO 18008G14KT 10SM BKN007 BKN010 OVC014 20/19 A3007 RMK AO2
KDLZ 250555Z AUTO 17008KT 5SM -RA BKN007 OVC016 20/19 A3006 RMK AO2 P0004
KDLZ 250535Z AUTO 19007KT 10SM BKN007 OVC013 20/19 A3006 RMK AO2 P0003
KDLZ 250515Z AUTO 18008G16KT 7SM RA BKN009 OVC013 20/19 A3007 RMK AO2 P0002
KDLZ 250455Z AUTO 17009KT 10SM DZ OVC007 20/19 A3007 RMK AO2 P0010
KDLZ 250436Z AUTO 17011KT 5SM +DZ BKN007 OVC011 20/19 A3007 RMK AO2 P0010
KDLZ 250415Z AUTO 15008KT 4SM RA BKN007 OVC013 20/19 A3007 RMK AO2 P0008
KDLZ 250355Z AUTO 16009KT 7SM DZ BKN007 OVC012 20/19 A3007 RMK AO2 P0003
KDLZ 250336Z AUTO 17009G15KT 7SM BKN007 BKN012 OVC016 20/19 A3007 RMK AO2 P0002
KDLZ 250315Z AUTO 16010KT 7SM -RA BKN007 OVC012 20/19 A3007 RMK AO2
KDLZ 250255Z AUTO 17008G16KT 5SM -RA BKN007 OVC014 19/19 A3007 RMK AO2 P0025
KDLZ 250235Z AUTO 16006KT 3SM +RA BKN009 OVC014 19/18 A3007 RMK AO2 P0017
KDLZ 250215Z AUTO 16008G16KT 5SM RA SCT007 BKN012 OVC019 19/18 A3007 RMK AO2 P0003
KDLZ 250155Z AUTO 15010KT 124V184 4SM RA BKN006 BKN015 OVC021 19/18 A3007 RMK AO2 P0013
KDLZ 250135Z AUTO 15006KT 4SM +DZ BKN007 OVC014 20/19 A3008 RMK AO2 P0009
KDLZ 250115Z AUTO 14009KT 4SM RA SCT007 BKN015 OVC031 20/19 A3007 RMK AO2 P0007
KDLZ 250055Z AUTO 15007KT 5SM DZ BKN011 BKN022 OVC050 20/19 A3008 RMK AO2 P0003
KDLZ 250035Z AUTO 15007KT 7SM DZ SCT008 BKN012 OVC075 20/19 A3007 RMK AO2 P0002
KDLZ 250015Z AUTO 15007KT 7SM RA BKN008 BKN018 OVC039 20/19 A3007 RMK AO2 P0001
KDLZ 242355Z AUTO 15008KT 7SM DZ BKN012 BKN022 OVC080 20/19 A3007 RMK AO2 P0003
KDLZ 242335Z AUTO 14008KT 7SM RA SCT018 BKN033 OVC075 20/19 A3008 RMK AO2 P0002
KDLZ 242315Z AUTO 16009G14KT 10SM DZ SCT010 BKN028 OVC043 20/19 A3009 RMK AO2
KDLZ 242255Z AUTO 17010G14KT 10SM -DZ BKN010 OVC015 20/20 A3009 RMK AO2
KDLZ 242235Z AUTO 14009KT 10SM SCT007 OVC013 20/20 A3008 RMK AO2
KDLZ 242215Z AUTO 15007KT 10SM RA SCT009 OVC014 20/20 A3008 RMK AO2
KDLZ 242155Z AUTO 14007KT 10SM -RA SCT005 BKN009 OVC015 20/20 A3008 RMK AO2 P0006
KDLZ 242135Z AUTO 14006KT 7SM -RA BKN008 OVC014 20/20 A3009 RMK AO2 P0004
KDLZ 242115Z AUTO 13006KT 7SM RA BKN005 OVC011 20/20 A3009 RMK AO2 P0002
KDLZ 242055Z AUTO 13005KT 4SM RA BKN007 OVC011 20/20 A3009 RMK AO2 P0009
KDLZ 242035Z AUTO 12005KT 5SM RA BKN007 OVC013 20/20 A3010 RMK AO2 P0005
KDLZ 242015Z AUTO 12006KT 7SM RA BKN007 OVC012 20/20 A3010 RMK AO2 P0001
KDLZ 241955Z AUTO 12005KT 10SM DZ BKN007 OVC010 20/19 A3010 RMK AO2 P0003
KDLZ 241935Z AUTO 13005KT 10SM RA OVC007 20/19 A3011 RMK AO2 P0002
KDLZ 241915Z AUTO 12006KT 10SM -RA OVC005 20/19 A3011 RMK AO2 P0001
KDLZ 241855Z AUTO 13004KT 7SM RA OVC005 20/19 A3012 RMK AO2 P0003
KDLZ 241835Z AUTO 13004KT 7SM RA OVC005 20/19 A3013 RMK AO2 P0002
KDLZ 241815Z AUTO 14006KT 7SM -RA OVC005 19/18 A3014 RMK AO2 P0001
KDLZ 241755Z AUTO 15005KT 10SM -RA OVC005 19/18 A3015 RMK AO2
KDLZ 241735Z AUTO 15005KT 10SM -RA OVC005 19/18 A3015 RMK AO2
KDLZ 241715Z AUTO 14005KT 10SM OVC005 18/18 A3015 RMK AO2
KDLZ 241655Z AUTO 14006KT 10SM RA OVC005 18/18 A3016 RMK AO2 P0001
KDLZ 241635Z AUTO 14007KT 10SM RA OVC005 18/18 A3016 RMK AO2 P0001